Mullins, South Carolina
Current Conditions -  °F | °C
As of 12:15 PM on Saturday 25 Oct 2014 (Local Time) from KMAO Reporting Station
Clear Clear  
Wind Chill: 66°   Ceiling: Unl
Heat Index: 66°   Visibility: 10mi
Dew Point: 45°   Wind: 3mph
Humidity: 46%   Direction: 280°W
Pressure: 30.01"   Gusts: NA
Location:  34.2°N, 79.25°W
Report Text: KMAO 251615Z AUTO 28003KT 10SM CLR 19/07 A3001 RMK AO2
Loading
Personal Weather Stations






























Interactive Weather Map
Tropical Storm Tracking
New forecast layout! Learn more

10-Day Weather Forecast

Advertisements
Track Severe Weather on mobile